Aviation Digital Data Service (ADDS)

Output produced by TAFs form (2210 UTC 28 May 2017)
found at http://aviationweather.gov/adds/tafs/
 
METAR text: KMHR 282145Z 29004KT 10SM SKC 29/13 A2997
Conditions at: KMHR (MATHER FIELD , CA, US) observed 2145 UTC 28 May 2017
Temperature: 29.0°C (84°F)
Dewpoint: 13.0°C (55°F) [RH = 37%]
Pressure (altimeter): 29.97 inches Hg (1015.0 mb)
Winds: from the WNW (290 degrees) at 5 MPH (4 knots; 2.1 m/s)
Visibility: 10 or more miles (16+ km)
Ceiling: at least 12,000 feet AGL
Clouds: clear skies
Weather: no significant weather observed at this time

Forecast for: KMHR (MATHER FIELD , CA, US)
Text: KMHR 281725Z 2818/2918 23006KT P6SM SKC
Forecast period: 1800 UTC 28 May 2017 to 0600 UTC 29 May 2017
Forecast type: FROM: standard forecast or significant change
Winds: from the SW (230 degrees) at 7 MPH (6 knots; 3.1 m/s)
Visibility: 6 or more miles (10+ km)
Clouds: clear skies
Weather: no significant weather forecast for this period
Text: FM290600 17005KT P6SM SKC
Forecast period: 0600 to 1800 UTC 29 May 2017
Forecast type: FROM: standard forecast or significant change
Winds: from the S (170 degrees) at 6 MPH (5 knots; 2.6 m/s)
Visibility: 6 or more miles (10+ km)
Clouds: clear skies
Weather: no significant weather forecast for this period